createdAt,value
2023-01-11T09:59:48.683Z,21.02
2023-01-11T10:00:12.817Z,25.88
2023-01-11T10:00:32.716Z,21.98
2023-01-11T10:00:55.401Z,23.35
2023-01-11T10:01:15.303Z,20.85
2023-01-11T10:01:37.893Z,22.42
2023-01-11T10:02:01.377Z,22.02
2023-01-11T10:02:23.510Z,21.42
2023-01-11T10:02:46.721Z,22.75
2023-01-11T10:03:25.906Z,22.33
2023-01-11T10:04:25.956Z,24.58
2023-01-11T10:04:51.398Z,23.95
2023-01-11T10:05:31.056Z,23.50
2023-01-11T10:05:56.525Z,24.38
2023-01-11T10:06:18.470Z,22.17
2023-01-11T10:06:37.261Z,23.75
2023-01-11T10:07:12.358Z,24.10
2023-01-11T10:07:44.129Z,22.38
2023-01-11T10:18:21.216Z,24.20
2023-01-11T10:18:25.379Z,23.75
2023-01-11T10:18:27.913Z,23.55
2023-01-11T10:18:28.362Z,23.27
2023-01-11T10:18:29.957Z,23.85
2023-01-11T10:18:32.763Z,19.73
2023-01-11T10:19:18.680Z,21.35
2023-01-11T10:19:38.555Z,20.38
2023-01-11T10:20:01.370Z,20.65
2023-01-11T10:20:24.523Z,22.02
2023-01-11T10:20:43.833Z,22.80
2023-01-11T10:21:04.986Z,25.50
2023-01-11T10:21:23.504Z,23.38
2023-01-11T10:21:44.175Z,21.73
2023-01-11T10:22:02.230Z,20.40
2023-01-11T10:22:18.076Z,21.58
2023-01-11T10:22:36.937Z,21.40
2023-01-11T10:22:52.437Z,22.65
2023-01-11T10:23:11.645Z,21.98
2023-01-11T10:23:29.783Z,24.20
2023-01-11T10:23:50.809Z,24.85
2023-01-11T10:24:12.343Z,22.17
2023-01-11T10:24:30.028Z,23.50
2023-01-11T10:24:48.472Z,21.60
2023-01-11T10:25:11.398Z,22.48
2023-01-11T10:25:31.271Z,22.50
2023-01-11T10:25:51.583Z,23.48
2023-01-11T10:26:13.114Z,19.70
2023-01-11T10:26:29.111Z,22.95
2023-01-11T10:26:42.106Z,21.70
2023-01-11T10:26:59.133Z,21.20
2023-01-11T10:27:20.430Z,23.70
2023-01-11T10:27:37.847Z,22.33
2023-01-11T10:27:56.936Z,21.45
2023-01-11T10:28:23.052Z,23.80
2023-01-11T10:28:43.299Z,22.02
2023-01-11T10:29:22.166Z,23.30
2023-01-11T10:29:57.550Z,22.05
2023-01-11T10:30:33.552Z,26.70
2023-01-11T10:31:07.474Z,20.50
2023-01-11T10:31:43.925Z,22.23
2023-01-11T10:32:15.271Z,21.88
2023-01-11T10:32:45.824Z,23.80
2023-01-11T10:33:14.519Z,20.23
2023-01-11T10:33:49.995Z,22.23
2023-01-11T10:34:22.603Z,23.90
2023-01-11T10:34:56.242Z,22.70
2023-01-11T10:35:29.892Z,23.67
2023-01-11T10:35:58.167Z,25.63
2023-01-11T10:36:30.755Z,23.05
2023-01-11T10:37:10.984Z,22.80
2023-01-11T10:37:44.239Z,22.45
2023-01-11T10:38:15.431Z,21.88
2023-01-11T10:38:57.709Z,21.38
2023-01-11T10:39:32.040Z,34.28
2023-01-11T10:40:11.636Z,24.75
2023-01-11T10:40:35.280Z,45.03
2023-01-11T10:41:06.762Z,53.85
2023-01-11T10:41:26.513Z,25.27
2023-01-11T10:41:52.365Z,22.98
2023-01-11T10:42:11.899Z,17.40
2023-01-11T10:42:28.759Z,19.95
2023-01-11T10:42:48.799Z,19.90
2023-01-11T10:43:12.888Z,19.98
2023-01-11T10:43:27.016Z,21.77
2023-01-11T10:43:45.049Z,21.10
2023-01-11T10:44:05.218Z,20.05
2023-01-11T10:44:28.887Z,27.23
2023-01-11T10:44:52.647Z,46.35
2023-01-11T10:45:13.369Z,29.33
2023-01-11T10:45:37.449Z,25.45
2023-01-11T10:45:53.379Z,21.77
2023-01-11T10:46:11.416Z,21.15
2023-01-11T10:46:26.746Z,21.70
2023-01-11T10:46:44.674Z,23.85
2023-01-11T10:47:00.290Z,23.13
2023-01-11T10:47:18.354Z,21.08
2023-01-11T10:47:37.253Z,23.40
2023-01-11T10:47:57.207Z,40.67
2023-01-11T10:48:18.704Z,43.45
2023-01-11T10:48:37.217Z,35.08
2023-01-11T10:49:01.163Z,38.22
2023-01-11T10:49:33.664Z,26.67
2023-01-11T10:49:56.105Z,36.28
2023-01-11T10:50:19.388Z,23.33
2023-01-11T10:50:40.695Z,22.42
2023-01-11T10:51:01.646Z,24.17
2023-01-11T10:51:24.873Z,50.08
2023-01-11T10:51:44.142Z,40.47
2023-01-11T10:52:05.209Z,41.10
2023-01-11T10:52:28.175Z,44.20
2023-01-11T10:52:48.153Z,42.90
2023-01-11T10:53:07.771Z,34.72
2023-01-11T10:53:25.792Z,41.58
2023-01-11T10:53:44.297Z,28.02
2023-01-11T10:54:27.335Z,22.83
2023-01-11T10:54:46.794Z,22.67
2023-01-11T10:55:03.125Z,24.85
2023-01-11T10:55:23.227Z,28.60
2023-01-11T10:55:47.236Z,41.15
2023-01-11T10:56:13.874Z,77.47
2023-01-11T10:56:42.546Z,45.47
2023-01-11T10:57:08.975Z,20.98
2023-01-11T10:57:37.830Z,22.60
2023-01-11T10:58:03.583Z,83.63
2023-01-11T10:58:31.235Z,74.75
2023-01-11T10:59:03.916Z,26.33
2023-01-11T10:59:34.972Z,33.30
2023-01-11T11:00:08.994Z,26.58
2023-01-11T11:00:35.560Z,25.50
2023-01-11T11:00:58.679Z,20.70
2023-01-11T11:01:24.501Z,18.00
2023-01-11T11:01:55.584Z,38.95
2023-01-11T11:02:22.414Z,27.40
2023-01-11T11:02:56.075Z,24.08
2023-01-11T11:03:24.405Z,17.80
2023-01-11T11:04:02.525Z,18.35
2023-01-11T11:04:28.919Z,20.95
2023-01-11T11:05:05.143Z,26.33
2023-01-11T11:05:29.274Z,20.85
2023-01-11T11:05:51.072Z,17.88
2023-01-11T11:06:11.088Z,35.90
2023-01-11T11:06:33.916Z,51.92
2023-01-11T11:06:55.593Z,44.22
2023-01-11T11:07:15.250Z,27.60
2023-01-11T11:07:35.739Z,18.92
2023-01-11T11:07:55.698Z,18.88
2023-01-11T11:08:14.744Z,19.05
2023-01-11T11:08:33.586Z,19.02
2023-01-11T11:08:53.340Z,20.42
2023-01-11T11:09:17.831Z,24.10
2023-01-11T11:09:38.596Z,29.00
2023-01-11T11:09:59.159Z,23.88
2023-01-11T11:10:18.853Z,20.50
2023-01-11T11:10:38.357Z,39.75
2023-01-11T11:10:57.616Z,53.10
2023-01-11T11:11:14.897Z,38.35
2023-01-11T11:11:34.960Z,29.08
2023-01-11T11:11:53.269Z,23.92
2023-01-11T11:12:11.520Z,21.23
2023-01-11T11:12:29.289Z,20.05
2023-01-11T11:12:53.315Z,20.58
2023-01-11T11:13:21.377Z,28.10
2023-01-11T11:13:45.294Z,23.95
2023-01-11T11:14:04.417Z,21.45
2023-01-11T11:14:28.812Z,20.98
2023-01-11T11:14:47.208Z,19.83
2023-01-11T11:15:09.890Z,21.90
2023-01-11T11:15:28.816Z,21.63
2023-01-11T11:15:48.465Z,31.45
2023-01-11T11:16:06.821Z,36.65
2023-01-11T11:16:34.298Z,53.05
2023-01-11T11:17:00.146Z,21.48
2023-01-11T11:17:20.457Z,21.88
2023-01-11T11:17:35.929Z,36.95
2023-01-11T11:17:51.268Z,44.60
2023-01-11T11:18:04.800Z,39.17
2023-01-11T11:18:18.374Z,35.30
2023-01-11T11:18:31.065Z,31.17
2023-01-11T11:18:43.952Z,28.20
2023-01-11T11:18:58.714Z,25.35
2023-01-11T11:19:18.706Z,25.70
2023-01-11T11:19:33.269Z,30.88
2023-01-11T11:19:46.341Z,28.92
2023-01-11T11:19:59.290Z,38.50
2023-01-11T11:20:15.524Z,51.17
2023-01-11T11:20:30.859Z,46.03
2023-01-11T11:20:44.226Z,35.45
2023-01-11T11:21:02.924Z,29.52
2023-01-11T11:21:23.305Z,28.75
2023-01-11T11:21:38.987Z,25.70
2023-01-11T11:21:52.498Z,25.92
2023-01-11T11:22:05.148Z,26.23
2023-01-11T11:22:19.989Z,25.20
2023-01-11T11:22:33.089Z,24.05
2023-01-11T11:22:45.744Z,29.45
2023-01-11T11:22:59.139Z,56.63
2023-01-11T11:23:18.416Z,78.45
2023-01-11T11:23:31.646Z,52.65
2023-01-11T11:23:47.462Z,37.97
2023-01-11T11:24:03.860Z,39.78
2023-01-11T11:24:22.438Z,51.15
2023-01-11T11:24:41.811Z,36.33
2023-01-11T11:25:00.958Z,29.55
2023-01-11T11:25:18.071Z,30.83
2023-01-11T11:25:33.504Z,29.60
2023-01-11T11:25:51.344Z,27.10
2023-01-11T11:26:06.846Z,26.77
2023-01-11T11:26:21.175Z,24.17
2023-01-11T11:26:38.365Z,21.05
2023-01-11T11:26:57.358Z,21.52
2023-01-11T11:27:20.737Z,21.23
2023-01-11T11:27:40.023Z,20.98
2023-01-11T11:27:56.846Z,28.50
2023-01-11T11:28:27.023Z,43.42
2023-01-11T11:28:59.945Z,51.42
2023-01-11T11:29:21.234Z,39.50
2023-01-11T11:29:41.594Z,28.13
2023-01-11T11:29:57.366Z,31.42
2023-01-11T11:30:13.229Z,37.85
2023-01-11T11:30:29.405Z,39.47
2023-01-11T11:30:43.992Z,34.58
2023-01-11T11:30:59.847Z,30.70
2023-01-11T11:31:15.163Z,27.38
2023-01-11T11:31:29.201Z,23.20
2023-01-11T11:31:44.245Z,37.38
2023-01-11T11:32:00.258Z,53.50
2023-01-11T11:32:25.568Z,54.85
2023-01-11T11:32:43.107Z,36.67
2023-01-11T11:33:00.705Z,29.58
2023-01-11T11:33:20.706Z,25.35
2023-01-11T11:33:35.757Z,21.73
2023-01-11T11:33:48.528Z,20.92
2023-01-11T11:34:06.992Z,19.33
2023-01-11T11:34:22.361Z,20.17
2023-01-11T11:34:36.046Z,23.52
2023-01-11T11:34:50.257Z,25.20
2023-01-11T11:35:03.151Z,27.13
2023-01-11T11:35:30.499Z,28.27
2023-01-11T11:35:46.432Z,31.95
2023-01-11T11:36:02.172Z,30.33
2023-01-11T11:36:17.535Z,31.13
2023-01-11T11:36:41.473Z,28.80
2023-01-11T11:36:54.565Z,28.45
2023-01-11T11:37:21.807Z,36.35
2023-01-11T11:37:36.115Z,39.83
2023-01-11T11:37:48.920Z,37.22
2023-01-11T11:38:01.745Z,58.63
2023-01-11T11:38:22.527Z,72.43
2023-01-11T11:38:38.520Z,48.42
2023-01-11T11:39:05.450Z,39.90
2023-01-11T11:39:20.862Z,29.23
2023-01-11T11:39:34.570Z,31.20
2023-01-11T11:39:49.066Z,28.13
2023-01-11T11:40:02.410Z,45.47
2023-01-11T11:40:29.645Z,72.72
2023-01-11T11:40:43.274Z,72.80
2023-01-11T11:41:06.479Z,64.18
2023-01-11T11:41:19.088Z,48.13
2023-01-11T11:41:47.182Z,40.92
2023-01-11T11:42:07.845Z,33.35
2023-01-11T11:42:21.550Z,42.78
2023-01-11T11:42:34.195Z,44.17
2023-01-11T11:42:46.947Z,41.55
2023-01-11T11:43:20.802Z,36.83
2023-01-11T11:43:34.608Z,34.78
2023-01-11T11:43:47.833Z,30.52
2023-01-11T11:44:15.463Z,34.22
2023-01-11T11:44:29.862Z,34.72
2023-01-11T11:44:42.553Z,32.45
2023-01-11T11:45:16.447Z,30.85
2023-01-11T11:45:30.056Z,24.15
2023-01-11T11:45:51.464Z,23.88
2023-01-11T11:46:07.106Z,18.75
2023-01-11T11:46:27.702Z,18.17
2023-01-11T11:46:40.498Z,17.98
2023-01-11T11:47:04.411Z,18.13
2023-01-11T11:47:17.688Z,19.35
2023-01-11T11:47:30.385Z,20.80
2023-01-11T11:47:45.015Z,24.17
2023-01-11T11:48:02.707Z,42.05
2023-01-11T11:48:15.354Z,35.08
2023-01-11T11:48:31.219Z,19.50
2023-01-11T11:48:44.510Z,18.25
2023-01-11T11:49:13.230Z,19.38
2023-01-11T11:49:26.748Z,17.17
2023-01-11T11:49:40.015Z,17.95
2023-01-11T11:50:42.428Z,18.10
2023-01-11T11:51:00.205Z,36.67
2023-01-11T11:51:17.002Z,30.23
2023-01-11T11:51:29.716Z,26.40
2023-01-11T11:51:44.372Z,27.10
2023-01-11T11:52:26.513Z,30.70
2023-01-11T11:54:20.456Z,25.15
2023-01-11T11:54:36.429Z,24.40
2023-01-11T11:54:51.672Z,21.23
2023-01-11T11:55:08.108Z,20.10
2023-01-11T11:55:27.088Z,25.42
2023-01-11T11:55:40.745Z,30.40
2023-01-11T11:55:53.964Z,30.60
2023-01-11T11:56:14.149Z,33.75
2023-01-11T11:56:28.998Z,38.25
2023-01-11T11:56:41.844Z,32.67
2023-01-11T11:56:57.085Z,28.70
2023-01-11T11:57:15.923Z,24.50
2023-01-11T11:57:32.457Z,17.98
2023-01-11T11:57:45.135Z,16.98
2023-01-11T11:58:00.427Z,18.02
2023-01-11T11:58:19.683Z,18.25
2023-01-11T11:58:32.578Z,18.23
2023-01-11T11:58:46.343Z,18.20
2023-01-11T11:59:05.432Z,28.90
2023-01-11T11:59:20.310Z,56.28
2023-01-11T11:59:33.919Z,49.20
2023-01-11T11:59:48.866Z,35.45
2023-01-11T12:00:04.303Z,24.17
2023-01-11T12:00:25.683Z,20.33
2023-01-11T12:00:46.502Z,24.55
2023-01-11T12:01:00.346Z,21.83
2023-01-11T12:01:27.414Z,22.13
2023-01-11T12:01:46.760Z,20.75
2023-01-11T12:02:04.700Z,20.48
2023-01-11T12:02:28.270Z,18.98
2023-01-11T12:02:49.735Z,22.65
2023-01-11T12:03:06.217Z,23.65
2023-01-11T12:03:21.848Z,31.33
2023-01-11T12:03:36.076Z,33.83
2023-01-11T12:03:49.598Z,26.38
2023-01-11T12:04:11.743Z,24.92
2023-01-11T12:04:33.329Z,21.67
2023-01-11T12:04:49.791Z,24.70
2023-01-11T12:05:09.244Z,23.90
2023-01-11T12:05:22.278Z,28.65
2023-01-11T12:05:34.953Z,34.95
2023-01-11T12:05:53.724Z,41.60
2023-01-11T12:06:08.852Z,35.33
2023-01-11T12:06:25.195Z,35.15
2023-01-11T12:06:38.237Z,33.72
2023-01-11T12:07:06.595Z,25.92
2023-01-11T12:07:21.939Z,19.38
2023-01-11T12:07:49.892Z,17.70
2023-01-11T12:08:07.756Z,19.02
2023-01-11T12:08:21.707Z,24.15
2023-01-11T12:08:35.496Z,26.75
2023-01-11T12:08:48.121Z,67.68
2023-01-11T12:09:03.636Z,81.97
2023-01-11T12:09:27.749Z,52.58
2023-01-11T12:09:44.290Z,39.58
2023-01-11T12:10:00.448Z,23.52
2023-01-11T12:10:16.875Z,17.30
2023-01-11T12:10:32.009Z,22.58
2023-01-11T12:10:49.769Z,46.25
2023-01-11T12:11:06.774Z,54.42
2023-01-11T12:11:30.014Z,49.80
2023-01-11T12:11:47.896Z,63.78
2023-01-11T12:12:02.080Z,59.05
2023-01-11T12:12:18.345Z,49.45
2023-01-11T12:12:32.468Z,33.58
2023-01-11T12:12:56.235Z,30.58
2023-01-11T12:13:27.727Z,34.85
2023-01-11T12:13:42.485Z,23.35
2023-01-11T12:14:01.177Z,19.40
2023-01-11T12:14:19.676Z,18.88
2023-01-11T12:14:35.149Z,22.30
2023-01-11T12:15:18.499Z,30.60
2023-01-11T12:15:34.628Z,23.77
2023-01-11T12:15:56.726Z,24.63
2023-01-11T12:16:21.093Z,52.40
2023-01-11T12:16:38.456Z,42.15
2023-01-11T12:16:52.086Z,21.90
2023-01-11T12:17:22.894Z,23.42
2023-01-11T12:17:35.720Z,29.83
2023-01-11T12:17:48.808Z,28.30
2023-01-11T12:18:25.957Z,20.20
2023-01-11T12:18:41.584Z,16.90
2023-01-11T12:18:54.233Z,16.58
2023-01-11T12:19:29.516Z,17.90
2023-01-11T12:19:45.239Z,17.30
2023-01-11T12:19:57.932Z,23.27
2023-01-11T12:20:27.815Z,36.28
2023-01-11T12:20:44.705Z,39.70
2023-01-11T12:20:57.313Z,37.38
2023-01-11T12:21:18.262Z,28.55
2023-01-11T12:21:30.852Z,17.67
2023-01-11T12:21:44.805Z,17.15
2023-01-11T12:22:17.863Z,18.95
2023-01-11T12:22:30.587Z,17.88
2023-01-11T12:22:44.819Z,19.77
2023-01-11T12:23:14.855Z,23.52
2023-01-11T12:23:27.488Z,34.33
2023-01-11T12:23:41.071Z,25.08
2023-01-11T12:24:10.387Z,17.20
2023-01-11T12:24:23.971Z,16.50
2023-01-11T12:24:36.571Z,16.88
2023-01-11T12:25:05.559Z,17.48
2023-01-11T12:25:21.782Z,19.02
2023-01-11T12:25:39.777Z,25.60
2023-01-11T12:26:21.197Z,34.60
2023-01-11T12:26:41.707Z,23.48
2023-01-11T12:27:03.862Z,20.33
2023-01-11T12:27:30.137Z,17.15
2023-01-11T12:27:50.927Z,16.35
2023-01-11T12:28:11.651Z,16.10
2023-01-11T12:28:37.901Z,15.75
2023-01-11T12:29:23.092Z,18.98
2023-01-11T12:29:56.108Z,26.02
2023-01-11T12:30:25.744Z,23.73
2023-01-11T12:30:48.114Z,51.80
2023-01-11T12:31:12.602Z,24.63
2023-01-11T12:31:36.801Z,17.67
2023-01-11T12:32:04.022Z,16.27
2023-01-11T12:32:40.562Z,40.70
2023-01-11T12:33:08.667Z,40.60
2023-01-11T12:33:37.979Z,19.48
2023-01-11T12:33:57.331Z,23.23
2023-01-11T12:34:22.698Z,19.40
2023-01-11T12:34:52.565Z,20.23
2023-01-11T12:35:25.215Z,19.85
2023-01-11T12:35:47.780Z,24.38
2023-01-11T12:36:06.807Z,39.90
2023-01-11T12:36:29.380Z,33.85
2023-01-11T12:36:50.255Z,17.55
2023-01-11T12:37:18.923Z,21.55
2023-01-11T12:37:45.619Z,18.77
2023-01-11T12:38:13.879Z,19.10
2023-01-11T12:38:47.179Z,25.75
2023-01-11T12:39:09.850Z,18.90
2023-01-11T12:39:33.906Z,24.23
2023-01-11T12:39:55.503Z,29.27
2023-01-11T12:40:18.140Z,36.38
2023-01-11T12:40:36.317Z,41.00
2023-01-11T12:41:04.362Z,39.00
2023-01-11T12:41:50.208Z,39.92
2023-01-11T12:42:15.950Z,38.97
2023-01-11T12:43:05.323Z,27.88
2023-01-11T12:43:30.864Z,27.70
2023-01-11T12:43:57.705Z,26.60
2023-01-11T12:44:15.884Z,21.92
2023-01-11T12:44:45.897Z,20.00
2023-01-11T12:45:12.967Z,27.48
2023-01-11T12:45:38.669Z,24.20
2023-01-11T12:46:05.386Z,20.52
2023-01-11T12:46:28.362Z,27.00
2023-01-11T12:46:54.717Z,27.48
2023-01-11T12:47:26.546Z,22.40
2023-01-11T12:48:05.663Z,36.60
2023-01-11T12:48:38.112Z,26.02
2023-01-11T12:49:06.135Z,22.73
2023-01-11T12:49:30.114Z,18.48
2023-01-11T12:49:52.631Z,17.90
2023-01-11T12:50:15.962Z,23.85
2023-01-11T12:50:33.210Z,24.55
2023-01-11T12:51:05.175Z,23.88
2023-01-11T12:51:31.040Z,24.25
2023-01-11T12:52:02.079Z,21.35
2023-01-11T12:52:39.319Z,26.30
2023-01-11T12:53:17.161Z,27.42
2023-01-11T12:53:43.409Z,19.10
2023-01-11T12:54:18.817Z,19.88
2023-01-11T12:54:42.881Z,16.15
2023-01-11T12:55:15.257Z,16.67
2023-01-11T12:55:42.481Z,22.45
2023-01-11T12:56:20.771Z,29.75
2023-01-11T12:56:57.551Z,22.55
2023-01-11T12:57:20.068Z,26.60
2023-01-11T12:57:41.727Z,22.80
2023-01-11T12:58:00.458Z,22.10
2023-01-11T12:58:20.999Z,27.27
2023-01-11T12:58:41.339Z,21.63
2023-01-11T12:58:59.258Z,18.95
2023-01-11T12:59:27.916Z,25.00
2023-01-11T13:00:07.146Z,37.90
2023-01-11T13:00:32.195Z,29.40
2023-01-11T13:01:16.312Z,38.78
2023-01-11T13:01:40.990Z,24.90
2023-01-11T13:02:05.483Z,27.77
2023-01-11T13:02:38.024Z,21.75
2023-01-11T13:03:08.796Z,16.25
2023-01-11T13:03:53.675Z,15.82
2023-01-11T13:04:33.392Z,26.42
2023-01-11T13:04:55.142Z,24.42
2023-01-11T13:05:23.580Z,20.17
2023-01-11T13:05:47.692Z,21.55
2023-01-11T13:06:10.014Z,18.00
2023-01-11T13:06:30.444Z,15.73
2023-01-11T13:06:53.707Z,18.73
2023-01-11T13:07:16.147Z,25.70
2023-01-11T13:07:52.864Z,20.30
2023-01-11T13:08:11.671Z,23.13
2023-01-11T13:08:38.117Z,22.30
2023-01-11T13:08:58.621Z,17.35
2023-01-11T13:09:27.193Z,28.52
2023-01-11T13:09:54.546Z,48.92
2023-01-11T13:10:23.766Z,21.25
2023-01-11T13:10:48.088Z,18.95
2023-01-11T13:11:10.946Z,16.02
2023-01-11T13:11:38.471Z,17.48
2023-01-11T13:11:56.980Z,15.40
2023-01-11T13:12:17.270Z,15.48
2023-01-11T13:12:37.602Z,16.40
2023-01-11T13:12:56.479Z,15.00
2023-01-11T13:13:15.038Z,26.98
2023-01-11T13:13:37.559Z,26.58
2023-01-11T13:14:00.491Z,19.33
2023-01-11T13:14:34.082Z,18.73
2023-01-11T13:15:00.859Z,17.83
2023-01-11T13:15:28.370Z,16.45
2023-01-11T13:15:48.967Z,20.58
2023-01-11T13:16:08.239Z,18.17
2023-01-11T13:16:27.569Z,20.40
2023-01-11T13:16:47.305Z,20.85
2023-01-11T13:17:08.187Z,18.23
2023-01-11T13:17:28.052Z,25.48
2023-01-11T13:17:45.809Z,26.63
2023-01-11T13:18:05.425Z,21.70
2023-01-11T13:18:29.749Z,26.05
2023-01-11T13:18:49.591Z,21.70
2023-01-11T13:19:07.659Z,17.10
2023-01-11T13:19:26.908Z,15.95
2023-01-11T13:19:47.155Z,18.45
2023-01-11T13:20:17.352Z,30.08
2023-01-11T13:20:59.462Z,22.98
2023-01-11T13:21:25.476Z,18.38
2023-01-11T13:21:44.333Z,18.35
2023-01-11T13:21:58.388Z,16.67
2023-01-11T13:22:15.579Z,16.67
2023-01-11T13:22:34.265Z,17.58
2023-01-11T13:22:50.696Z,19.35
2023-01-11T13:23:08.289Z,17.20
2023-01-11T13:23:29.368Z,14.63
2023-01-11T13:23:47.665Z,18.33
2023-01-11T13:24:07.461Z,51.00
2023-01-11T13:24:26.405Z,54.53
2023-01-11T13:24:40.827Z,18.45
2023-01-11T13:24:53.482Z,15.88
2023-01-11T13:25:16.468Z,17.30
2023-01-11T13:25:32.733Z,19.98
2023-01-11T13:25:48.488Z,22.25
2023-01-11T13:26:09.847Z,19.85
2023-01-11T13:26:26.578Z,21.08
2023-01-11T13:26:42.760Z,22.90
2023-01-11T13:27:01.613Z,18.02
2023-01-11T13:27:18.994Z,19.27
2023-01-11T13:27:32.876Z,21.05
2023-01-11T13:27:47.542Z,18.30
2023-01-11T13:28:04.946Z,15.25
2023-01-11T13:28:24.626Z,16.30
2023-01-11T13:28:42.036Z,16.00
2023-01-11T13:29:01.072Z,17.15
2023-01-11T13:29:17.023Z,27.02
2023-01-11T13:29:32.447Z,34.25
2023-01-11T13:29:47.411Z,29.30
2023-01-11T13:30:01.925Z,24.80
2023-01-11T13:30:17.981Z,23.30
2023-01-11T13:30:32.056Z,22.17
2023-01-11T13:30:46.481Z,22.42
2023-01-11T13:31:02.741Z,24.10
2023-01-11T13:31:16.499Z,31.10
2023-01-11T13:31:34.492Z,31.05
2023-01-11T13:31:49.663Z,23.90
2023-01-11T13:32:05.621Z,21.25
2023-01-11T13:32:21.477Z,20.70
2023-01-11T13:32:38.251Z,27.80
2023-01-11T13:32:56.218Z,34.75
2023-01-11T13:33:17.329Z,21.52
2023-01-11T13:33:32.645Z,21.73
2023-01-11T13:33:50.728Z,26.25
2023-01-11T13:34:07.048Z,24.58
2023-01-11T13:34:25.673Z,21.17
2023-01-11T13:34:42.341Z,39.53
2023-01-11T13:35:01.195Z,56.63
2023-01-11T13:35:16.838Z,36.78
2023-01-11T13:35:37.264Z,29.80
2023-01-11T13:35:57.419Z,25.75
2023-01-11T13:36:22.919Z,23.52
2023-01-11T13:36:42.388Z,23.10
2023-01-11T13:36:59.748Z,19.77
2023-01-11T13:37:20.106Z,18.55
2023-01-11T13:37:40.273Z,20.42
2023-01-11T13:38:01.600Z,36.33
2023-01-11T13:38:27.595Z,43.05
2023-01-11T13:38:46.393Z,29.30
2023-01-11T13:39:05.208Z,19.08
2023-01-11T13:39:28.515Z,19.25
2023-01-11T13:39:46.717Z,22.02
2023-01-11T13:40:09.415Z,27.38
2023-01-11T13:40:24.978Z,30.42
2023-01-11T13:40:44.728Z,32.63
2023-01-11T13:41:01.737Z,30.10
2023-01-11T13:41:21.049Z,26.88
2023-01-11T13:41:41.413Z,22.42
2023-01-11T13:41:57.740Z,22.17
2023-01-11T13:42:15.831Z,23.38
2023-01-11T13:42:33.942Z,20.63
2023-01-11T13:42:51.933Z,19.63
2023-01-11T13:43:10.319Z,25.30
2023-01-11T13:43:30.908Z,23.25
2023-01-11T13:43:49.285Z,20.77
2023-01-11T13:44:11.522Z,22.00
2023-01-11T13:44:27.930Z,31.58
2023-01-11T13:44:44.672Z,34.00
2023-01-11T13:45:01.858Z,26.52
2023-01-11T13:45:20.892Z,23.67
2023-01-11T13:45:37.102Z,29.13
2023-01-11T13:45:54.491Z,26.77
2023-01-11T13:46:14.907Z,21.23
2023-01-11T13:46:45.005Z,16.30
2023-01-11T13:47:06.139Z,21.60
2023-01-11T13:47:24.286Z,36.30
2023-01-11T13:47:42.065Z,35.08
2023-01-11T13:47:58.518Z,24.42
2023-01-11T13:48:18.481Z,19.63
2023-01-11T13:48:37.589Z,20.55
2023-01-11T13:48:55.968Z,20.58
2023-01-11T13:49:18.521Z,20.77
2023-01-11T13:49:52.519Z,18.15
2023-01-11T13:50:13.376Z,22.98
2023-01-11T13:50:31.160Z,26.77
2023-01-11T13:50:51.550Z,23.77
2023-01-11T13:51:19.191Z,29.95
2023-01-11T13:51:38.964Z,21.38
2023-01-11T13:51:56.188Z,20.25
2023-01-11T13:52:14.461Z,16.95
2023-01-11T13:52:38.855Z,17.02
2023-01-11T13:53:03.719Z,19.88
2023-01-11T13:53:32.950Z,19.60
2023-01-11T13:53:53.084Z,17.55
2023-01-11T13:54:12.085Z,26.45
2023-01-11T13:54:35.261Z,27.65
2023-01-11T13:54:58.714Z,25.95
2023-01-11T13:55:25.129Z,18.75
2023-01-11T13:55:46.042Z,20.70
2023-01-11T13:56:03.121Z,21.63
2023-01-11T13:56:20.611Z,20.42
2023-01-11T13:56:38.331Z,22.33
2023-01-11T13:56:56.945Z,19.13
2023-01-11T13:57:19.753Z,17.23
2023-01-11T13:57:43.469Z,17.55
2023-01-11T13:58:01.688Z,20.80
2023-01-11T13:58:20.494Z,24.60
2023-01-11T13:58:42.528Z,38.70
2023-01-11T13:59:01.638Z,113.95
2023-01-11T13:59:19.982Z,137.43
2023-01-11T13:59:40.761Z,73.22
2023-01-11T14:00:00.328Z,18.45
2023-01-11T14:00:22.431Z,24.95
2023-01-11T14:00:42.234Z,26.00
2023-01-11T14:01:01.498Z,17.15
2023-01-11T14:01:18.146Z,18.30
2023-01-11T14:01:42.627Z,22.63
2023-01-11T14:02:01.502Z,30.70
2023-01-11T14:02:22.129Z,43.25
2023-01-11T14:02:40.658Z,48.55
2023-01-11T14:02:59.966Z,50.90
2023-01-11T14:03:24.242Z,53.95
2023-01-11T14:03:45.168Z,37.65
2023-01-11T14:04:06.144Z,42.85
2023-01-11T14:04:27.243Z,39.75
2023-01-11T14:04:47.009Z,27.75
2023-01-11T14:05:04.489Z,31.73
2023-01-11T14:05:19.377Z,22.55
2023-01-11T14:05:39.355Z,21.35
2023-01-11T14:06:02.554Z,21.27
2023-01-11T14:06:42.462Z,22.15
2023-01-11T14:07:07.381Z,27.02
2023-01-11T14:07:29.198Z,34.90
2023-01-11T14:07:56.054Z,28.55
2023-01-11T14:08:24.284Z,22.65
2023-01-11T14:09:00.630Z,15.52
2023-01-11T14:09:38.547Z,15.80
2023-01-11T14:10:18.112Z,17.23
2023-01-11T14:10:40.334Z,17.73
2023-01-11T14:11:01.326Z,16.58
2023-01-11T14:11:23.808Z,16.20
2023-01-11T14:11:47.292Z,16.08
2023-01-11T14:12:08.798Z,18.20
2023-01-11T14:12:34.554Z,16.58
2023-01-11T14:13:04.397Z,15.88
2023-01-11T14:14:08.153Z,16.05
2023-01-11T14:14:41.671Z,18.00
2023-01-11T14:15:22.614Z,19.27
2023-01-11T14:15:41.732Z,18.38
2023-01-11T14:15:59.300Z,17.88
2023-01-11T14:16:21.459Z,16.92
2023-01-11T14:16:46.987Z,19.92
2023-01-11T14:17:19.175Z,19.75
2023-01-11T14:18:09.282Z,21.23
2023-01-11T14:18:29.936Z,25.05
2023-01-11T14:18:48.436Z,23.15
2023-01-11T14:19:05.792Z,21.45
2023-01-11T14:19:25.515Z,20.77
2023-01-11T14:19:46.136Z,22.02
2023-01-11T14:20:09.834Z,19.02
2023-01-11T14:20:33.380Z,18.45
2023-01-11T14:20:54.453Z,18.70
2023-01-11T14:21:13.197Z,19.85
2023-01-11T14:21:34.253Z,19.33
2023-01-11T14:22:01.791Z,18.10
2023-01-11T14:22:26.923Z,19.80
2023-01-11T14:22:44.123Z,18.38
2023-01-11T14:23:05.390Z,18.83
2023-01-11T14:23:21.470Z,18.27
2023-01-11T14:23:44.141Z,18.98
2023-01-11T14:23:57.922Z,18.48
2023-01-11T14:24:12.390Z,18.65
2023-01-11T14:24:28.093Z,19.15
2023-01-11T14:24:53.365Z,20.40
2023-01-11T14:25:14.971Z,18.67
2023-01-11T14:25:32.665Z,18.23
2023-01-11T14:26:02.731Z,17.48
2023-01-11T14:26:41.616Z,18.20
2023-01-11T14:27:13.213Z,20.73
2023-01-11T14:27:54.352Z,19.23
2023-01-11T14:28:33.903Z,20.75
2023-01-11T14:29:02.592Z,21.48
2023-01-11T14:29:44.615Z,21.15
2023-01-11T14:30:16.453Z,21.67
2023-01-11T14:30:47.152Z,20.90
2023-01-11T14:31:23.146Z,20.02
2023-01-11T14:31:58.527Z,20.20
2023-01-11T14:32:37.460Z,19.73
2023-01-11T14:33:20.686Z,18.83
2023-01-11T14:34:19.167Z,17.10
2023-01-11T14:35:00.012Z,21.15
2023-01-11T14:35:45.822Z,20.15
2023-01-11T14:36:14.069Z,18.48
2023-01-11T14:36:45.195Z,17.45
2023-01-11T14:37:37.575Z,18.02
2023-01-11T14:38:12.914Z,17.73
2023-01-11T14:39:10.509Z,18.27
2023-01-11T14:39:57.692Z,18.75
2023-01-11T14:40:42.095Z,18.65
2023-01-11T14:41:34.441Z,18.38
2023-01-11T14:42:31.357Z,16.98
2023-01-11T14:43:16.176Z,15.77
2023-01-11T14:44:05.278Z,19.58
2023-01-11T14:44:36.580Z,18.25
2023-01-11T14:45:14.265Z,18.30
2023-01-11T14:45:40.981Z,17.30
2023-01-11T14:46:14.506Z,19.85
2023-01-11T14:47:03.172Z,18.38
2023-01-11T14:47:33.889Z,20.10
2023-01-11T14:48:02.523Z,16.85
2023-01-11T14:48:27.072Z,19.65
2023-01-11T14:48:53.633Z,18.52
2023-01-11T14:49:16.541Z,20.48
2023-01-11T14:49:51.893Z,18.02
2023-01-11T14:50:16.150Z,16.67
2023-01-11T14:50:42.003Z,16.88
2023-01-11T14:51:15.597Z,18.23
2023-01-11T14:51:34.674Z,17.48
2023-01-11T14:51:56.247Z,19.55
2023-01-11T14:52:15.386Z,20.42
2023-01-11T14:52:40.110Z,18.27
2023-01-11T14:52:57.620Z,19.40
2023-01-11T14:53:17.775Z,19.50
2023-01-11T14:53:33.109Z,18.02
2023-01-11T14:53:49.872Z,19.00
2023-01-11T14:54:07.130Z,20.98
2023-01-11T14:54:24.457Z,21.70
2023-01-11T14:54:40.718Z,20.50
2023-01-11T14:54:55.150Z,18.95
2023-01-11T14:55:16.468Z,20.77
2023-01-11T14:55:31.898Z,21.17
2023-01-11T14:55:46.578Z,21.52
2023-01-11T14:55:59.253Z,20.02
2023-01-11T14:56:51.616Z,19.50
2023-01-11T14:57:05.702Z,19.65
2023-01-11T14:57:39.855Z,20.50
2023-01-11T14:58:18.686Z,19.30
2023-01-11T14:58:33.263Z,19.98
2023-01-11T14:59:02.891Z,19.42
2023-01-11T14:59:33.402Z,18.13
2023-01-11T14:59:47.017Z,22.00
2023-01-11T15:00:01.745Z,20.77